Time;durP1;ratioP1;P1;durP2;ratioP2;P2;SDS_P1;SDS_P2;PMS_P1;PMS_P2;Temp;Humidity;BMP_temperature;BMP_pressure;BME280_temperature;BME280_humidity;BME280_pressure;Samples;Min_cycle;Max_cycle;Signal;HPM_P1;HPM_P2
2022/05/18 00:01:25;;;;;;;7.55;5.82;;;19.60;99.90;;;;;;4989980;28;20204;-78
2022/05/18 00:03:53;;;;;;;9.65;6.07;;;19.60;99.90;;;;;;4998991;28;20199;-78
2022/05/18 00:06:20;;;;;;;7.28;4.93;;;19.60;99.90;;;;;;4989105;28;20244;-78
2022/05/18 00:08:47;;;;;;;7.72;6.18;;;19.60;99.90;;;;;;4996714;28;20232;-78
2022/05/18 00:11:19;;;;;;;6.95;5.75;;;19.60;99.90;;;;;;4990703;28;20204;-78
2022/05/18 00:13:48;;;;;;;8.45;5.93;;;19.60;99.90;;;;;;5014432;28;20208;-78
2022/05/18 00:16:17;;;;;;;7.20;6.40;;;19.60;99.90;;;;;;5000152;28;20196;-78
2022/05/18 00:18:45;;;;;;;10.73;6.57;;;19.50;99.90;;;;;;5007476;28;20230;-78
2022/05/18 00:21:14;;;;;;;9.18;6.80;;;19.40;99.90;;;;;;4996465;28;20214;-78
2022/05/18 00:23:42;;;;;;;10.00;6.18;;;19.30;99.90;;;;;;5004732;28;20201;-78
2022/05/18 00:26:09;;;;;;;7.70;6.68;;;19.40;99.90;;;;;;5000963;28;20708;-78
2022/05/18 00:28:40;;;;;;;8.80;6.03;;;19.30;99.90;;;;;;5009424;28;20224;-78
2022/05/18 00:31:07;;;;;;;8.40;6.32;;;19.40;99.90;;;;;;4989021;28;20208;-78
2022/05/18 00:33:35;;;;;;;9.52;6.25;;;19.60;99.90;;;;;;4994871;28;20204;-77
2022/05/18 00:36:02;;;;;;;6.68;5.75;;;19.60;99.90;;;;;;4989249;28;20202;-77
2022/05/18 00:38:29;;;;;;;5.85;5.25;;;19.60;99.90;;;;;;5009177;28;20713;-77
2022/05/18 00:40:58;;;;;;;9.45;5.55;;;19.60;99.90;;;;;;5005882;28;20191;-77
2022/05/18 00:43:40;;;;;;;5.78;4.75;;;19.70;99.90;;;;;;5007311;28;20689;-77
2022/05/18 00:46:11;;;;;;;9.23;6.05;;;19.80;99.90;;;;;;4987100;28;20203;-77
2022/05/18 00:48:39;;;;;;;6.82;5.90;;;19.70;99.90;;;;;;5006487;28;20213;-77
2022/05/18 00:51:10;;;;;;;9.65;5.28;;;19.70;99.90;;;;;;4999800;28;20212;-77
2022/05/18 00:53:43;;;;;;;6.85;4.13;;;19.60;99.90;;;;;;4991873;28;20208;-77
2022/05/18 00:56:15;;;;;;;5.05;4.07;;;19.60;99.90;;;;;;4994116;28;20203;-77
2022/05/18 00:58:48;;;;;;;7.60;4.90;;;19.40;99.90;;;;;;5010674;28;20223;-77
2022/05/18 01:01:16;;;;;;;4.60;4.10;;;19.50;99.90;;;;;;5017785;28;20196;-77
2022/05/18 01:03:47;;;;;;;3.97;3.60;;;19.50;99.90;;;;;;4998846;28;20200;-77
2022/05/18 01:06:27;;;;;;;4.45;3.47;;;19.70;99.90;;;;;;4996056;28;20200;-77
2022/05/18 01:09:00;;;;;;;3.75;3.42;;;19.50;99.90;;;;;;5008165;28;20215;-77
2022/05/18 01:11:27;;;;;;;3.78;3.33;;;19.60;99.90;;;;;;5000936;28;20592;-77
2022/05/18 01:13:57;;;;;;;4.90;3.25;;;19.70;99.90;;;;;;5017265;28;20199;-77
2022/05/18 01:16:26;;;;;;;3.88;3.53;;;19.70;99.90;;;;;;5015118;28;20207;-77
2022/05/18 01:18:55;;;;;;;4.63;2.83;;;19.60;99.90;;;;;;5015274;28;20221;-77
2022/05/18 01:21:27;;;;;;;5.07;3.25;;;19.80;99.90;;;;;;4991658;28;20206;-77
2022/05/18 01:24:04;;;;;;;5.55;3.70;;;19.80;99.90;;;;;;5019854;28;20220;-77
2022/05/18 01:26:41;;;;;;;3.85;3.50;;;19.80;99.90;;;;;;4999590;28;20214;-77
2022/05/18 01:29:09;;;;;;;3.72;3.30;;;19.90;99.90;;;;;;4989609;28;20245;-77
2022/05/18 01:31:46;;;;;;;6.28;3.42;;;19.90;99.90;;;;;;5004702;28;20195;-77
2022/05/18 01:34:16;;;;;;;5.32;3.05;;;19.90;99.90;;;;;;4994330;28;20203;-77
2022/05/18 01:36:44;;;;;;;2.97;2.67;;;19.90;99.90;;;;;;5007974;28;20200;-77
2022/05/18 01:39:16;;;;;;;3.22;2.92;;;19.90;99.90;;;;;;4991367;28;20220;-77
2022/05/18 01:41:54;;;;;;;5.65;2.90;;;19.90;99.90;;;;;;4999072;28;20209;-77
2022/05/18 01:44:22;;;;;;;4.55;3.22;;;20.00;99.90;;;;;;5004631;28;20204;-77
2022/05/18 01:46:49;;;;;;;3.35;3.00;;;19.90;99.90;;;;;;4993777;28;20207;-77
2022/05/18 01:49:18;;;;;;;3.30;3.00;;;19.90;99.90;;;;;;4986793;28;20216;-77
2022/05/18 01:51:50;;;;;;;6.28;3.33;;;19.90;99.90;;;;;;4990369;28;20215;-77
2022/05/18 01:54:18;;;;;;;4.38;3.05;;;20.00;99.90;;;;;;4990608;28;20207;-77
2022/05/18 01:56:47;;;;;;;5.03;2.70;;;20.00;99.90;;;;;;4994385;28;20216;-77
2022/05/18 01:59:14;;;;;;;3.13;2.60;;;19.90;99.90;;;;;;4991396;28;20228;-77
2022/05/18 02:01:44;;;;;;;6.03;3.60;;;20.00;99.90;;;;;;5000778;28;20224;-77
2022/05/18 02:04:12;;;;;;;4.68;3.10;;;20.00;99.90;;;;;;4989924;28;20192;-77
2022/05/18 02:06:40;;;;;;;3.50;3.03;;;20.10;99.90;;;;;;5004883;28;20208;-77
2022/05/18 02:09:07;;;;;;;4.93;3.20;;;20.00;99.90;;;;;;4988035;28;20216;-77
2022/05/18 02:11:36;;;;;;;3.78;3.38;;;20.00;99.90;;;;;;4988034;28;20204;-77
2022/05/18 02:14:05;;;;;;;4.00;2.85;;;20.00;99.90;;;;;;5011744;28;20200;-77
2022/05/18 02:16:39;;;;;;;4.10;3.13;;;20.00;99.90;;;;;;4993469;28;20200;-77
2022/05/18 02:19:06;;;;;;;3.17;2.72;;;20.00;99.90;;;;;;4993490;28;20594;-77
2022/05/18 02:21:33;;;;;;;4.75;3.17;;;19.90;99.90;;;;;;4990621;28;20197;-77
2022/05/18 02:24:01;;;;;;;3.03;2.75;;;19.90;99.90;;;;;;4993874;28;20200;-77
2022/05/18 02:26:28;;;;;;;4.15;3.22;;;19.90;99.90;;;;;;4993228;28;20536;-77
2022/05/18 02:28:56;;;;;;;4.40;2.90;;;19.90;99.90;;;;;;5005985;28;20686;-77
2022/05/18 02:31:24;;;;;;;3.78;3.10;;;19.90;99.90;;;;;;4988292;28;20200;-77
2022/05/18 02:33:52;;;;;;;4.57;2.85;;;19.90;99.90;;;;;;4993691;28;20207;-77
2022/05/18 02:36:32;;;;;;;3.95;3.10;;;19.90;99.90;;;;;;4991610;28;20204;-77
2022/05/18 02:38:59;;;;;;;3.53;3.22;;;19.90;99.90;;;;;;5003655;28;20227;-77
2022/05/18 02:41:27;;;;;;;4.05;2.92;;;19.90;99.90;;;;;;5002367;28;20658;-76
2022/05/18 02:43:54;;;;;;;6.85;3.00;;;19.90;99.90;;;;;;5002384;28;20202;-77
2022/05/18 02:46:24;;;;;;;5.32;2.60;;;19.90;99.90;;;;;;4996387;28;20202;-77
2022/05/18 02:48:52;;;;;;;3.35;3.05;;;19.90;99.90;;;;;;5008633;28;20224;-77
2022/05/18 02:51:21;;;;;;;4.00;3.03;;;19.90;99.90;;;;;;5005456;28;20199;-77
2022/05/18 02:53:48;;;;;;;4.35;3.00;;;19.90;99.90;;;;;;5012604;28;20210;-77
2022/05/18 02:56:23;;;;;;;3.95;3.58;;;19.80;99.90;;;;;;5012535;28;20196;-77
2022/05/18 02:58:53;;;;;;;3.05;2.63;;;19.80;99.90;;;;;;4997059;28;20572;-77
2022/05/18 03:01:24;;;;;;;3.58;2.83;;;19.80;99.90;;;;;;4998865;28;20204;-77
2022/05/18 03:03:53;;;;;;;3.95;3.33;;;19.80;99.90;;;;;;5006437;28;20585;-77
2022/05/18 03:06:24;;;;;;;4.20;2.90;;;19.80;99.90;;;;;;5013595;28;20219;-77
2022/05/18 03:08:52;;;;;;;3.95;2.90;;;19.80;99.90;;;;;;5008343;28;20215;-77
2022/05/18 03:11:20;;;;;;;6.80;3.20;;;20.10;99.90;;;;;;5015982;28;20211;-77
2022/05/18 03:13:47;;;;;;;3.60;3.30;;;20.10;99.90;;;;;;4998099;28;20202;-77
2022/05/18 03:16:15;;;;;;;4.80;3.20;;;20.10;99.90;;;;;;5003613;28;20196;-77
2022/05/18 03:18:43;;;;;;;3.90;3.22;;;20.20;99.90;;;;;;5010950;28;20215;-77
2022/05/18 03:23:56;;;;;;;4.35;2.85;;;20.10;99.90;;;;;;4997759;28;20228;-77
2022/05/18 03:26:25;;;;;;;3.60;3.10;;;20.10;99.90;;;;;;5013815;28;20192;-77
2022/05/18 03:28:55;;;;;;;3.30;3.00;;;20.20;99.90;;;;;;5006860;28;20215;-77
2022/05/18 03:31:23;;;;;;;5.60;3.45;;;20.20;99.90;;;;;;5004522;28;20196;-77
2022/05/18 03:33:54;;;;;;;5.00;3.13;;;20.30;99.90;;;;;;4995681;28;20200;-77
2022/05/18 03:36:23;;;;;;;3.45;3.15;;;20.30;99.90;;;;;;5012409;28;20200;-77
2022/05/18 03:38:52;;;;;;;4.70;2.65;;;20.10;99.90;;;;;;5013243;28;20223;-77
2022/05/18 03:41:20;;;;;;;4.30;3.25;;;20.20;99.90;;;;;;5009032;28;20669;-77
2022/05/18 03:43:48;;;;;;;3.30;2.67;;;20.20;99.90;;;;;;5006976;28;20200;-76
2022/05/18 03:46:16;;;;;;;3.30;2.97;;;20.20;99.90;;;;;;5008115;28;20199;-76
2022/05/18 03:48:43;;;;;;;3.50;2.70;;;20.30;99.90;;;;;;5008547;28;20218;-76
2022/05/18 03:51:14;;;;;;;4.38;2.58;;;20.20;99.90;;;;;;5009439;28;20203;-76
2022/05/18 03:53:42;;;;;;;4.45;3.20;;;20.20;99.90;;;;;;4995732;28;20223;-76
2022/05/18 03:56:10;;;;;;;3.28;2.97;;;20.20;99.90;;;;;;5012552;28;20211;-77
2022/05/18 03:58:37;;;;;;;4.88;3.10;;;20.20;99.90;;;;;;5014941;28;20242;-77
2022/05/18 04:01:08;;;;;;;4.20;3.25;;;20.20;99.90;;;;;;5014520;28;20223;-78
2022/05/18 04:03:37;;;;;;;3.60;3.28;;;20.20;99.90;;;;;;5013021;28;20661;-77
2022/05/18 04:06:05;;;;;;;5.35;3.65;;;20.20;99.90;;;;;;4994015;28;20545;-77
2022/05/18 04:08:34;;;;;;;3.35;3.05;;;20.20;99.90;;;;;;4998236;28;20246;-77
2022/05/18 04:11:01;;;;;;;3.67;3.10;;;20.30;99.90;;;;;;4994297;28;20207;-77
2022/05/18 04:13:29;;;;;;;4.97;3.33;;;20.20;99.90;;;;;;5023511;28;20207;-77
2022/05/18 04:15:56;;;;;;;4.55;3.70;;;20.10;99.90;;;;;;5002144;28;20207;-77
2022/05/18 04:18:24;;;;;;;3.13;2.83;;;20.20;99.90;;;;;;5004066;28;20231;-77
2022/05/18 04:20:52;;;;;;;3.15;2.85;;;20.20;99.90;;;;;;5003928;28;20230;-77
2022/05/18 04:23:20;;;;;;;3.70;3.30;;;20.20;99.90;;;;;;5004736;28;20204;-77
2022/05/18 04:25:49;;;;;;;5.18;3.15;;;20.20;99.90;;;;;;5001904;28;20199;-77
2022/05/18 04:28:17;;;;;;;6.40;4.00;;;20.20;99.90;;;;;;5007271;28;20219;-77
2022/05/18 04:30:47;;;;;;;3.97;3.35;;;20.10;99.90;;;;;;5010344;28;20195;-81
2022/05/18 04:33:17;;;;;;;3.97;3.45;;;20.10;99.90;;;;;;5013208;28;20192;-81
2022/05/18 04:35:46;;;;;;;3.35;3.05;;;20.20;99.90;;;;;;5030843;28;20203;-81
2022/05/18 04:38:14;;;;;;;3.60;3.30;;;20.20;99.90;;;;;;5017354;28;20227;-81
2022/05/18 04:40:41;;;;;;;4.47;3.38;;;20.20;99.90;;;;;;5023689;28;20226;-82
2022/05/18 04:43:10;;;;;;;4.82;4.05;;;20.10;99.90;;;;;;5002159;28;20206;-81
2022/05/18 04:45:44;;;;;;;4.57;3.50;;;20.10;99.90;;;;;;4996540;28;20665;-81
2022/05/18 04:48:15;;;;;;;4.03;3.30;;;20.10;99.90;;;;;;5002426;28;20218;-81
2022/05/18 04:50:43;;;;;;;5.43;3.50;;;20.10;99.90;;;;;;5012607;28;20206;-81
2022/05/18 04:53:11;;;;;;;4.13;2.88;;;20.10;99.90;;;;;;5004730;28;20685;-81
2022/05/18 04:55:39;;;;;;;4.20;3.67;;;20.20;99.90;;;;;;5001295;28;20208;-81
2022/05/18 04:58:07;;;;;;;4.22;3.50;;;20.30;99.90;;;;;;5006325;28;20224;-81
2022/05/18 05:00:37;;;;;;;4.32;3.55;;;20.30;99.90;;;;;;5008431;28;20230;-81
2022/05/18 05:03:05;;;;;;;4.60;3.10;;;20.30;99.90;;;;;;4995809;28;20210;-81
2022/05/18 05:05:34;;;;;;;4.25;3.20;;;20.30;99.90;;;;;;5013440;28;20212;-81
2022/05/18 05:08:02;;;;;;;4.28;3.30;;;20.40;99.90;;;;;;5010441;28;20222;-82
2022/05/18 05:10:29;;;;;;;4.13;3.08;;;20.40;99.90;;;;;;4989958;28;20203;-81
2022/05/18 05:12:57;;;;;;;3.78;3.03;;;20.40;99.90;;;;;;5015335;28;20214;-81
2022/05/18 05:15:24;;;;;;;4.97;3.33;;;20.50;99.90;;;;;;4999999;28;20219;-81
2022/05/18 05:17:53;;;;;;;3.67;3.05;;;20.50;99.90;;;;;;4992164;28;20599;-81
2022/05/18 05:20:21;;;;;;;4.30;3.40;;;20.50;99.90;;;;;;5009009;28;20219;-81
2022/05/18 05:22:48;;;;;;;5.97;3.83;;;20.60;99.90;;;;;;5004349;28;20210;-81
2022/05/18 05:25:18;;;;;;;5.35;3.65;;;20.60;99.90;;;;;;5006835;28;20210;-81
2022/05/18 05:27:46;;;;;;;5.07;3.45;;;20.60;99.90;;;;;;5006772;28;20199;-81
2022/05/18 05:30:14;;;;;;;4.43;3.35;;;20.50;99.90;;;;;;5011391;28;20206;-81
2022/05/18 05:32:42;;;;;;;4.80;3.38;;;20.60;99.90;;;;;;5007530;28;20213;-82
2022/05/18 05:35:12;;;;;;;3.92;3.53;;;20.50;99.90;;;;;;5011034;28;20203;-81
2022/05/18 05:37:40;;;;;;;4.00;3.50;;;20.60;99.90;;;;;;5009103;28;20214;-81
2022/05/18 05:40:08;;;;;;;5.47;3.42;;;20.70;99.90;;;;;;5016450;28;20220;-81
2022/05/18 05:42:37;;;;;;;5.13;3.55;;;20.60;99.90;;;;;;5005783;28;20211;-80
2022/05/18 05:45:13;;;;;;;4.43;3.25;;;20.70;99.90;;;;;;5020004;28;20199;-81
2022/05/18 05:47:43;;;;;;;3.28;2.97;;;20.80;99.90;;;;;;4999941;28;20216;-80
2022/05/18 05:50:25;;;;;;;7.18;3.30;;;20.70;99.90;;;;;;5008014;28;20210;-80
2022/05/18 05:53:05;;;;;;;3.80;3.15;;;20.80;99.90;;;;;;5006324;28;20570;-80
2022/05/18 05:55:55;;;;;;;4.32;3.10;;;20.90;99.90;;;;;;5012042;28;20203;-80
2022/05/18 05:58:27;;;;;;;4.28;3.80;;;20.90;99.90;;;;;;5021666;28;20224;-80
2022/05/18 06:00:59;;;;;;;5.50;3.65;;;21.00;99.90;;;;;;5004885;28;20219;-80
2022/05/18 06:03:27;;;;;;;3.65;3.25;;;21.10;99.90;;;;;;5018711;28;20215;-80
2022/05/18 06:06:10;;;;;;;4.78;3.83;;;21.10;99.90;;;;;;5005552;28;20208;-83
2022/05/18 06:08:38;;;;;;;5.22;3.40;;;21.10;99.90;;;;;;5007106;28;20219;-83
2022/05/18 06:11:07;;;;;;;6.20;3.60;;;21.10;99.90;;;;;;5005925;28;20207;-83
2022/05/18 06:13:40;;;;;;;5.28;2.92;;;21.10;99.90;;;;;;5008001;28;20218;-82
2022/05/18 06:16:08;;;;;;;5.28;3.50;;;21.20;99.90;;;;;;5004935;28;20195;-82
2022/05/18 06:18:36;;;;;;;4.70;3.03;;;21.30;99.90;;;;;;5005474;28;20220;-83
2022/05/18 06:21:05;;;;;;;4.47;3.30;;;21.30;99.90;;;;;;5003308;28;20216;-83
2022/05/18 06:23:51;;;;;;;4.57;3.10;;;21.40;99.90;;;;;;5006396;28;20203;-82
2022/05/18 06:26:18;;;;;;;5.47;3.20;;;21.40;99.90;;;;;;5023212;28;20204;-83
2022/05/18 06:28:48;;;;;;;3.60;2.97;;;21.50;99.90;;;;;;5022309;28;20230;-82
2022/05/18 06:31:16;;;;;;;3.85;2.88;;;21.50;99.90;;;;;;4999968;28;20202;-80
2022/05/18 06:33:43;;;;;;;4.40;2.78;;;21.60;99.90;;;;;;5023975;28;20563;-82
2022/05/18 06:36:12;;;;;;;4.40;3.05;;;21.70;99.90;;;;;;5009397;28;20673;-83
2022/05/18 06:42:35;;;;;;;3.83;3.22;;;21.80;99.90;;;;;;5020127;28;20231;-83
2022/05/18 06:45:04;;;;;;;4.85;3.20;;;21.90;99.90;;;;;;5012347;28;20199;-83
2022/05/18 06:47:32;;;;;;;3.10;2.80;;;21.90;99.90;;;;;;5011023;28;20215;-83
2022/05/18 06:50:03;;;;;;;3.90;3.15;;;22.00;99.90;;;;;;5025321;28;20653;-83
2022/05/18 06:52:32;;;;;;;4.40;3.30;;;22.00;99.90;;;;;;5013777;28;20208;-82
2022/05/18 06:55:06;;;;;;;4.10;3.15;;;22.00;99.90;;;;;;5008950;28;20203;-83
2022/05/18 06:57:35;;;;;;;3.67;2.97;;;22.20;99.90;;;;;;5011190;28;20203;-83
2022/05/18 07:00:06;;;;;;;4.75;2.90;;;22.20;99.90;;;;;;5007094;28;20698;-81
2022/05/18 07:02:34;;;;;;;7.88;2.63;;;22.20;99.90;;;;;;5000354;28;20218;-83
2022/05/18 07:05:01;;;;;;;4.10;2.58;;;22.30;99.90;;;;;;5003752;28;20193;-83
2022/05/18 07:07:29;;;;;;;3.75;2.40;;;22.30;99.90;;;;;;5007273;28;20223;-83
2022/05/18 07:09:57;;;;;;;4.30;2.63;;;22.30;99.90;;;;;;5002344;28;20200;-82
2022/05/18 07:12:25;;;;;;;4.45;2.95;;;22.50;99.90;;;;;;5003332;28;20212;-82
2022/05/18 07:14:52;;;;;;;3.03;2.72;;;22.50;99.90;;;;;;5022409;28;20693;-80
2022/05/18 07:17:20;;;;;;;4.85;2.60;;;22.50;99.90;;;;;;5004844;28;20207;-82
2022/05/18 07:19:47;;;;;;;3.83;2.40;;;22.50;99.90;;;;;;5007460;28;20227;-84
2022/05/18 07:22:15;;;;;;;3.25;2.70;;;22.80;99.90;;;;;;5016365;28;20224;-85
2022/05/18 07:24:43;;;;;;;3.00;2.70;;;22.90;99.60;;;;;;5001544;28;20192;-83
2022/05/18 07:27:12;;;;;;;3.20;2.90;;;22.90;99.90;;;;;;5016699;28;20200;-82
2022/05/18 07:29:40;;;;;;;5.35;2.70;;;22.90;99.90;;;;;;4997395;28;20219;-83
2022/05/18 07:32:12;;;;;;;4.05;3.05;;;22.90;99.90;;;;;;5021748;28;20651;-81
2022/05/18 07:34:40;;;;;;;3.25;2.65;;;22.90;99.90;;;;;;5004306;28;20200;-80
2022/05/18 07:37:11;;;;;;;3.38;2.38;;;22.90;99.90;;;;;;5007016;28;20657;-83
2022/05/18 07:39:41;;;;;;;4.50;2.45;;;23.00;99.90;;;;;;5015314;28;20240;-82
2022/05/18 07:45:50;;;;;;;4.10;2.70;;;23.30;99.90;;;;;;5005950;28;20211;-82
2022/05/18 07:48:23;;;;;;;3.72;2.30;;;23.30;98.80;;;;;;5002539;28;20624;-81
2022/05/18 07:50:58;;;;;;;3.17;2.33;;;23.30;98.00;;;;;;5009895;28;20195;-81
2022/05/18 07:53:42;;;;;;;3.75;2.28;;;23.40;98.60;;;;;;5002131;28;20211;-83
2022/05/18 07:56:12;;;;;;;3.72;2.33;;;23.30;98.00;;;;;;5000885;28;20200;-81
2022/05/18 07:58:42;;;;;;;2.78;2.58;;;23.30;97.60;;;;;;5007701;28;20223;-80
2022/05/18 08:01:13;;;;;;;7.20;2.70;;;23.50;97.40;;;;;;4996986;28;20224;-78
2022/05/18 08:03:45;;;;;;;3.60;2.50;;;23.50;96.70;;;;;;5009752;28;20204;-77
2022/05/18 08:06:14;;;;;;;4.57;2.75;;;23.70;96.00;;;;;;5029283;28;20200;-77
2022/05/18 08:08:45;;;;;;;4.03;2.60;;;23.80;95.90;;;;;;5010040;28;20230;-77
2022/05/18 08:16:48;;;;;;;6.03;2.88;;;23.80;97.00;;;;;;5011357;28;20588;-78
2022/05/18 08:19:17;;;;;;;3.95;2.40;;;24.10;94.70;;;;;;5004897;28;20224;-79
2022/05/18 08:21:47;;;;;;;2.95;2.58;;;24.30;94.30;;;;;;5025665;28;20211;-79
2022/05/18 08:24:16;;;;;;;3.50;2.50;;;24.30;95.40;;;;;;5011204;28;20195;-79
2022/05/18 08:26:45;;;;;;;4.05;2.92;;;24.30;95.00;;;;;;5008239;28;20200;-79
2022/05/18 08:29:14;;;;;;;3.35;2.60;;;24.10;94.00;;;;;;5006114;28;20227;-78
2022/05/18 08:31:43;;;;;;;4.95;2.63;;;24.20;94.50;;;;;;5004805;28;20200;-78
2022/05/18 08:34:14;;;;;;;3.92;2.47;;;24.50;95.90;;;;;;5027027;28;20673;-78
2022/05/18 08:36:43;;;;;;;2.63;2.30;;;24.30;95.40;;;;;;4999309;28;20207;-78
2022/05/18 08:39:20;;;;;;;4.28;2.20;;;24.20;94.30;;;;;;5008699;28;20254;-78
2022/05/18 08:41:52;;;;;;;4.15;2.25;;;24.30;96.00;;;;;;5003107;28;20207;-78
2022/05/18 08:44:28;;;;;;;2.42;2.22;;;24.50;95.40;;;;;;5006133;28;20194;-79
2022/05/18 08:47:16;;;;;;;2.85;1.92;;;24.70;93.10;;;;;;5003123;28;20207;-79
2022/05/18 08:49:58;;;;;;;3.47;2.28;;;24.70;92.60;;;;;;5006443;28;20223;-79
2022/05/18 08:52:40;;;;;;;5.13;2.42;;;24.70;92.40;;;;;;5009997;28;20720;-78
2022/05/18 08:55:35;;;;;;;1.98;1.85;;;24.60;93.00;;;;;;5015586;28;20196;-79
2022/05/18 08:58:12;;;;;;;3.90;2.70;;;24.60;91.90;;;;;;5024259;28;20227;-79
2022/05/18 09:00:45;;;;;;;3.25;2.60;;;24.80;92.20;;;;;;5012858;28;20191;-79
2022/05/18 09:03:19;;;;;;;2.90;2.15;;;24.80;91.10;;;;;;5018893;28;20199;-78
2022/05/18 09:05:57;;;;;;;3.70;2.40;;;24.90;92.30;;;;;;5011534;28;20206;-78
2022/05/18 09:08:30;;;;;;;2.35;2.15;;;24.70;90.80;;;;;;5013147;28;20234;-79
2022/05/18 09:11:05;;;;;;;2.60;2.40;;;24.70;92.00;;;;;;5015153;28;20207;-79
2022/05/18 09:13:34;;;;;;;3.03;2.50;;;24.80;91.70;;;;;;5011193;28;20210;-78
2022/05/18 09:16:18;;;;;;;3.50;2.30;;;25.00;90.20;;;;;;5003674;28;20203;-78
2022/05/18 09:18:53;;;;;;;4.18;2.42;;;25.20;90.00;;;;;;5012231;28;20223;-79
2022/05/18 09:21:37;;;;;;;3.65;2.38;;;25.20;90.60;;;;;;5012671;28;20218;-78
2022/05/18 09:24:22;;;;;;;2.55;2.28;;;25.30;90.50;;;;;;5003241;28;20251;-79
2022/05/18 09:27:13;;;;;;;3.50;2.40;;;25.20;88.20;;;;;;5026931;28;20195;-78
2022/05/18 09:29:53;;;;;;;4.45;2.65;;;25.40;89.60;;;;;;5007398;28;20246;-78
2022/05/18 09:32:39;;;;;;;2.63;2.40;;;25.50;88.60;;;;;;5012490;28;20207;-78
2022/05/18 09:35:22;;;;;;;3.05;2.33;;;25.40;88.60;;;;;;5026769;28;20200;-78
2022/05/18 09:37:57;;;;;;;3.40;2.35;;;25.40;89.00;;;;;;5011952;28;20232;-78
2022/05/18 09:40:29;;;;;;;3.80;2.25;;;25.30;90.20;;;;;;5011125;28;20642;-79
2022/05/18 09:43:10;;;;;;;2.92;2.58;;;25.40;89.70;;;;;;5012540;28;20204;-79
2022/05/18 09:45:43;;;;;;;2.60;2.40;;;25.30;89.40;;;;;;5025136;28;20203;-79
2022/05/18 09:48:16;;;;;;;5.07;2.88;;;25.30;89.50;;;;;;5012358;28;20219;-79
2022/05/18 09:50:48;;;;;;;2.97;2.38;;;25.30;90.20;;;;;;5007777;28;20203;-79
2022/05/18 09:53:20;;;;;;;2.63;2.42;;;25.30;89.30;;;;;;5006764;28;20654;-79
2022/05/18 09:55:51;;;;;;;3.40;2.80;;;25.30;90.80;;;;;;5010322;28;20200;-78
2022/05/18 09:58:26;;;;;;;2.95;2.28;;;25.30;90.20;;;;;;5008346;28;20235;-79
2022/05/18 10:09:47;;;;;;;6.07;5.05;;;25.50;90.80;;;;;;5009394;28;20219;-79
2022/05/18 10:12:22;;;;;;;5.45;3.28;;;25.60;87.60;;;;;;5010153;28;20199;-79
2022/05/18 10:14:58;;;;;;;4.22;3.38;;;25.70;87.20;;;;;;5013378;28;20215;-79
2022/05/18 10:17:34;;;;;;;2.63;2.42;;;25.60;85.10;;;;;;5014828;28;20199;-79
2022/05/18 10:20:08;;;;;;;3.33;3.00;;;25.60;88.60;;;;;;5011469;28;20203;-79
2022/05/18 10:22:43;;;;;;;4.47;2.88;;;26.00;85.30;;;;;;5000519;28;20219;-79
2022/05/18 10:25:23;;;;;;;4.65;2.97;;;26.30;86.40;;;;;;5007367;28;20203;-78
2022/05/18 10:27:52;;;;;;;4.30;2.72;;;25.90;84.90;;;;;;5006373;28;20223;-78
2022/05/18 10:30:28;;;;;;;4.00;2.50;;;25.90;82.70;;;;;;5005383;28;20204;-79
2022/05/18 10:33:00;;;;;;;4.07;2.40;;;26.10;79.60;;;;;;5008676;28;20203;-79
2022/05/18 10:35:47;;;;;;;2.70;2.50;;;26.20;84.30;;;;;;5011589;28;20205;-79
2022/05/18 10:38:20;;;;;;;2.70;2.40;;;26.20;82.70;;;;;;5007682;28;20219;-79
2022/05/18 10:40:53;;;;;;;2.92;2.63;;;26.30;77.80;;;;;;5007231;28;20208;-79
2022/05/18 10:43:35;;;;;;;2.92;2.58;;;26.30;80.10;;;;;;5008793;28;20686;-79
2022/05/18 10:46:12;;;;;;;3.03;2.50;;;26.40;82.20;;;;;;5008556;28;20665;-78
2022/05/18 10:48:50;;;;;;;4.22;2.35;;;26.40;79.70;;;;;;5028759;28;20227;-78
2022/05/18 10:51:28;;;;;;;4.85;2.92;;;26.40;79.00;;;;;;5005299;28;20204;-78
2022/05/18 10:54:09;;;;;;;2.80;2.60;;;26.40;83.40;;;;;;5006783;28;20657;-78
2022/05/18 10:56:38;;;;;;;4.97;2.90;;;26.50;78.40;;;;;;5011689;28;20196;-77
2022/05/18 10:59:31;;;;;;;3.72;3.40;;;26.70;80.10;;;;;;5009954;28;20219;-78
2022/05/18 11:02:05;;;;;;;4.00;2.83;;;26.90;85.90;;;;;;5005635;28;20581;-78
2022/05/18 11:04:44;;;;;;;3.05;2.70;;;26.90;77.50;;;;;;5023058;28;20203;-78
2022/05/18 11:07:11;;;;;;;3.13;2.22;;;27.20;82.70;;;;;;5003502;28;20208;-77
2022/05/18 11:09:41;;;;;;;2.80;2.60;;;27.40;76.70;;;;;;5008238;28;20234;-78
2022/05/18 11:12:17;;;;;;;2.85;2.65;;;27.20;73.70;;;;;;5010074;28;20199;-77
2022/05/18 11:14:50;;;;;;;2.78;2.40;;;27.30;76.10;;;;;;5007125;28;20653;-77
2022/05/18 11:17:37;;;;;;;2.53;2.33;;;27.30;71.30;;;;;;5003517;28;20566;-78
2022/05/18 11:20:17;;;;;;;2.45;2.25;;;27.50;71.50;;;;;;5009500;28;20199;-77
2022/05/18 11:23:09;;;;;;;3.40;2.60;;;27.40;68.80;;;;;;5010475;28;20215;-77
2022/05/18 11:25:48;;;;;;;2.95;2.67;;;27.40;72.30;;;;;;5011426;28;20666;-77
2022/05/18 11:28:26;;;;;;;2.88;2.60;;;27.40;70.80;;;;;;5015232;28;20246;-77
2022/05/18 11:31:03;;;;;;;2.75;2.40;;;27.60;69.00;;;;;;5009721;28;20199;-78
2022/05/18 11:33:38;;;;;;;3.25;2.10;;;27.50;68.50;;;;;;5035408;28;20211;-78
2022/05/18 11:36:29;;;;;;;2.63;2.42;;;27.50;72.10;;;;;;5007421;28;20195;-78
2022/05/18 11:39:06;;;;;;;3.05;2.72;;;27.60;70.60;;;;;;5020143;28;20611;-77
2022/05/18 11:41:59;;;;;;;2.63;2.42;;;27.50;69.50;;;;;;5008725;28;20568;-77
2022/05/18 11:44:40;;;;;;;2.60;2.40;;;27.50;72.90;;;;;;5012553;28;20208;-78
2022/05/18 11:47:20;;;;;;;3.05;2.40;;;28.00;67.40;;;;;;5004995;28;20208;-79
2022/05/18 11:49:59;;;;;;;4.35;2.40;;;28.10;71.70;;;;;;5010234;28;20215;-78
2022/05/18 11:52:41;;;;;;;3.35;2.72;;;27.90;65.10;;;;;;5023324;28;20200;-78
2022/05/18 11:55:20;;;;;;;3.25;2.42;;;28.10;64.80;;;;;;5007900;28;20192;-78
2022/05/18 11:57:54;;;;;;;2.67;2.38;;;28.00;69.70;;;;;;5006885;28;20202;-78
2022/05/18 12:00:46;;;;;;;5.75;2.60;;;28.00;65.60;;;;;;5018189;28;20180;-78
2022/05/18 12:03:33;;;;;;;3.38;2.10;;;28.00;69.10;;;;;;5017431;28;20210;-78
2022/05/18 12:06:34;;;;;;;3.85;2.55;;;28.20;67.30;;;;;;5019537;28;20203;-78
2022/05/18 12:09:21;;;;;;;3.15;2.35;;;28.40;63.80;;;;;;5010622;28;20237;-78
2022/05/18 12:12:00;;;;;;;4.95;2.38;;;28.40;64.40;;;;;;5024257;28;20211;-75
2022/05/18 12:14:37;;;;;;;3.72;2.10;;;28.50;66.10;;;;;;5025498;28;20202;-78
2022/05/18 12:17:12;;;;;;;2.50;2.15;;;28.70;57.60;;;;;;5008235;28;20204;-78
2022/05/18 12:19:52;;;;;;;3.35;1.80;;;28.80;55.90;;;;;;5020246;28;20226;-78
2022/05/18 12:22:24;;;;;;;2.67;2.28;;;28.80;57.50;;;;;;5023815;28;20208;-79
2022/05/18 12:24:54;;;;;;;3.38;2.92;;;29.00;57.30;;;;;;5022626;28;20210;-78
2022/05/18 12:27:23;;;;;;;2.53;2.10;;;29.10;59.10;;;;;;5011755;28;20196;-78
2022/05/18 12:29:55;;;;;;;3.20;2.42;;;28.80;58.80;;;;;;5010037;28;20232;-78
2022/05/18 12:32:25;;;;;;;2.83;2.58;;;28.70;58.80;;;;;;5007152;28;20215;-78
2022/05/18 12:35:03;;;;;;;2.65;2.33;;;28.90;59.90;;;;;;5008280;28;20202;-79
2022/05/18 12:37:33;;;;;;;3.33;2.22;;;29.20;60.60;;;;;;5004317;28;20219;-79
2022/05/18 12:40:27;;;;;;;3.42;2.22;;;29.30;60.00;;;;;;5018604;28;20215;-76
2022/05/18 12:43:01;;;;;;;2.80;2.50;;;29.20;58.80;;;;;;5017131;28;20222;-78
2022/05/18 12:45:33;;;;;;;4.10;2.45;;;29.00;62.30;;;;;;5008660;28;20222;-78
2022/05/18 12:48:21;;;;;;;2.58;2.38;;;28.90;61.80;;;;;;5010132;28;20214;-85
2022/05/18 12:50:59;;;;;;;3.55;2.65;;;29.00;62.10;;;;;;5010550;28;20218;-77
2022/05/18 12:53:43;;;;;;;3.13;2.63;;;29.30;61.50;;;;;;5008373;28;20231;-77
2022/05/18 12:56:17;;;;;;;2.72;2.13;;;29.30;57.60;;;;;;5007906;28;20211;-77
2022/05/18 12:58:51;;;;;;;3.33;2.17;;;29.50;55.40;;;;;;5023482;28;20239;-76
2022/05/18 13:01:21;;;;;;;3.88;2.17;;;29.50;53.90;;;;;;5010843;28;20195;-77
2022/05/18 13:03:59;;;;;;;3.65;2.30;;;29.70;53.20;;;;;;5008830;28;20224;-76
2022/05/18 13:06:40;;;;;;;2.20;1.92;;;29.60;53.70;;;;;;5008687;28;20210;-77
2022/05/18 13:09:36;;;;;;;2.92;2.20;;;29.70;55.80;;;;;;5021571;28;20211;-77
2022/05/18 13:12:45;;;;;;;3.28;2.03;;;29.80;56.50;;;;;;5007891;28;20567;-78
2022/05/18 13:15:53;;;;;;;2.67;2.42;;;29.80;55.70;;;;;;4999589;28;20614;-77
2022/05/18 13:18:28;;;;;;;3.33;2.35;;;29.80;53.70;;;;;;5020440;28;20223;-77
2022/05/18 13:21:15;;;;;;;3.03;2.33;;;30.10;53.80;;;;;;5010917;28;20199;-77
2022/05/18 13:23:52;;;;;;;2.78;1.90;;;30.50;52.90;;;;;;5006964;28;20219;-77
2022/05/18 13:26:27;;;;;;;4.28;1.83;;;30.90;51.10;;;;;;5010488;28;20199;-77
2022/05/18 13:28:57;;;;;;;2.47;2.22;;;30.90;50.30;;;;;;5020457;28;20215;-77
2022/05/18 13:31:25;;;;;;;2.42;2.22;;;31.10;50.10;;;;;;5011443;28;20206;-77
2022/05/18 13:33:57;;;;;;;2.28;2.08;;;31.20;50.40;;;;;;5008213;28;20203;-77
2022/05/18 13:36:39;;;;;;;2.22;2.00;;;31.00;52.20;;;;;;5003043;28;20221;-77
2022/05/18 13:39:09;;;;;;;3.05;1.88;;;30.60;49.20;;;;;;5006728;28;20227;-77
2022/05/18 13:41:38;;;;;;;3.83;2.33;;;30.90;49.40;;;;;;5001190;28;20679;-78